createdAt,value
2022-11-18T00:00:42.086Z,97459.61
2022-11-18T00:01:43.838Z,97461.77
2022-11-18T00:02:45.602Z,97462.65
2022-11-18T00:03:47.790Z,97456.45
2022-11-18T00:04:49.518Z,97455.77
2022-11-18T00:05:56.475Z,97457.89
2022-11-18T00:06:58.432Z,97456.06
2022-11-18T00:08:00.170Z,97456.16
2022-11-18T00:09:02.407Z,97453.53
2022-11-18T00:10:04.402Z,97449.85
2022-11-18T00:11:13.197Z,97452.05
2022-11-18T00:12:33.626Z,97449.66
2022-11-18T00:13:56.654Z,97443.10
2022-11-18T00:14:59.465Z,97441.11
2022-11-18T00:16:07.754Z,97443.65
2022-11-18T00:17:09.579Z,97444.91
2022-11-18T00:18:11.388Z,97445.31
2022-11-18T00:19:13.588Z,97444.92
2022-11-18T00:20:15.442Z,97444.73
2022-11-18T00:21:17.600Z,97447.52
2022-11-18T00:22:19.331Z,97448.40
2022-11-18T00:23:21.375Z,97446.61
2022-11-18T00:24:23.511Z,97446.26
2022-11-18T00:25:25.809Z,97445.92
2022-11-18T00:26:32.007Z,97443.52
2022-11-18T00:27:35.537Z,97440.45
2022-11-18T00:28:38.144Z,97436.37
2022-11-18T00:29:39.907Z,97435.11
2022-11-18T00:30:42.821Z,97432.95
2022-11-18T00:31:45.101Z,97439.33
2022-11-18T00:32:47.866Z,97437.61
2022-11-18T00:33:49.608Z,97440.48
2022-11-18T00:34:52.430Z,97441.63
2022-11-18T00:35:56.534Z,97445.16
2022-11-18T00:36:58.656Z,97448.08
2022-11-18T00:38:00.504Z,97446.89
2022-11-18T00:39:02.293Z,97449.79
2022-11-18T00:40:04.884Z,97453.66
2022-11-18T00:41:09.918Z,97451.77
2022-11-18T00:42:30.297Z,97453.73
2022-11-18T00:43:33.294Z,97451.42
2022-11-18T00:44:35.822Z,97448.29
2022-11-18T00:45:37.806Z,97454.52
2022-11-18T00:46:41.990Z,97453.41
2022-11-18T00:47:43.946Z,97450.11
2022-11-18T00:48:45.662Z,97446.09
2022-11-18T00:49:47.514Z,97447.77
2022-11-18T00:50:54.922Z,97442.52
2022-11-18T00:51:57.157Z,97441.99
2022-11-18T00:52:58.882Z,97443.73
2022-11-18T00:54:00.955Z,97443.51
2022-11-18T00:55:02.801Z,97444.80
2022-11-18T00:56:05.092Z,97442.81
2022-11-18T00:57:07.284Z,97442.86
2022-11-18T00:58:09.868Z,97443.02
2022-11-18T00:59:11.699Z,97447.34
2022-11-18T01:00:13.822Z,97444.40
2022-11-18T01:01:15.603Z,97445.99
2022-11-18T01:02:17.725Z,97447.19
2022-11-18T01:03:20.708Z,97448.29
2022-11-18T01:04:22.636Z,97453.14
2022-11-18T01:05:24.409Z,97453.09
2022-11-18T01:06:26.225Z,97452.67
2022-11-18T01:07:28.115Z,97453.61
2022-11-18T01:08:30.129Z,97452.88
2022-11-18T01:09:32.002Z,97456.11
2022-11-18T01:10:35.873Z,97454.40
2022-11-18T01:11:56.077Z,97451.67
2022-11-18T01:13:16.669Z,97455.98
2022-11-18T01:14:19.433Z,97455.36
2022-11-18T01:15:21.165Z,97457.27
2022-11-18T01:16:25.913Z,97463.91
2022-11-18T01:17:31.275Z,97460.13
2022-11-18T01:18:33.033Z,97461.87
2022-11-18T01:19:36.116Z,97463.67
2022-11-18T01:20:38.074Z,97461.20
2022-11-18T01:21:39.814Z,97463.71
2022-11-18T01:22:41.599Z,97458.16
2022-11-18T01:23:44.744Z,97459.96
2022-11-18T01:24:46.836Z,97457.56
2022-11-18T01:25:49.876Z,97457.22
2022-11-18T01:26:51.597Z,97456.17
2022-11-18T01:27:53.813Z,97459.48
2022-11-18T01:28:57.614Z,97460.05
2022-11-18T01:29:59.527Z,97460.33
2022-11-18T01:31:10.273Z,97462.45
2022-11-18T01:32:27.273Z,97464.58
2022-11-18T01:33:29.143Z,97465.29
2022-11-18T01:34:30.885Z,97461.66
2022-11-18T01:35:42.090Z,97464.68
2022-11-18T01:36:43.839Z,97460.90
2022-11-18T01:37:45.551Z,97456.95
2022-11-18T01:38:48.723Z,97455.45
2022-11-18T01:39:50.496Z,97457.08
2022-11-18T01:40:52.294Z,97457.29
2022-11-18T01:41:54.183Z,97459.95
2022-11-18T01:42:55.982Z,97459.79
2022-11-18T01:44:01.239Z,97465.45
2022-11-18T01:45:09.358Z,97468.00
2022-11-18T01:46:11.085Z,97470.10
2022-11-18T01:47:13.262Z,97469.77
2022-11-18T01:48:17.633Z,97467.10
2022-11-18T01:49:19.821Z,97467.90
2022-11-18T01:50:22.413Z,97464.85
2022-11-18T01:51:30.806Z,97465.35
2022-11-18T01:52:35.446Z,97463.17
2022-11-18T01:53:45.853Z,97462.83
2022-11-18T01:54:55.444Z,97463.15
2022-11-18T01:56:09.254Z,97464.58
2022-11-18T01:57:18.655Z,97465.92
2022-11-18T01:58:34.619Z,97465.17
2022-11-18T01:59:41.591Z,97467.70
2022-11-18T02:00:43.523Z,97472.00
2022-11-18T02:01:46.616Z,97469.52
2022-11-18T02:02:49.585Z,97467.59
2022-11-18T02:03:54.583Z,97466.23
2022-11-18T02:04:58.242Z,97467.50
2022-11-18T02:06:03.704Z,97466.80
2022-11-18T02:07:08.702Z,97464.42
2022-11-18T02:08:11.429Z,97464.21
2022-11-18T02:09:16.482Z,97463.46
2022-11-18T02:10:25.082Z,97461.32
2022-11-18T02:11:45.651Z,97459.39
2022-11-18T02:12:49.958Z,97455.86
2022-11-18T02:13:51.986Z,97456.48
2022-11-18T02:14:54.353Z,97454.39
2022-11-18T02:15:56.150Z,97451.49
2022-11-18T02:17:28.515Z,97450.88
2022-11-18T02:18:54.186Z,97448.20
2022-11-18T02:20:08.174Z,97445.09
2022-11-18T02:21:12.955Z,97443.02
2022-11-18T02:22:23.592Z,97442.52
2022-11-18T02:23:45.620Z,97445.18
2022-11-18T02:25:24.747Z,97447.05
2022-11-18T02:26:41.931Z,97446.09
2022-11-18T02:28:17.715Z,97450.36
2022-11-18T02:29:26.902Z,97450.34
2022-11-18T02:30:40.237Z,97449.83
2022-11-18T02:31:55.470Z,97450.05
2022-11-18T02:33:00.354Z,97454.59
2022-11-18T02:34:17.425Z,97450.20
2022-11-18T02:35:26.274Z,97450.98
2022-11-18T02:36:51.050Z,97453.73
2022-11-18T02:38:05.646Z,97450.65
2022-11-18T02:39:20.870Z,97453.61
2022-11-18T02:40:30.423Z,97449.09
2022-11-18T02:41:36.979Z,97444.80
2022-11-18T02:42:43.484Z,97442.42
2022-11-18T02:43:56.018Z,97434.75
2022-11-18T02:45:05.937Z,97435.75
2022-11-18T02:46:13.409Z,97431.71
2022-11-18T02:47:17.476Z,97431.29
2022-11-18T02:48:25.039Z,97429.02
2022-11-18T02:49:37.349Z,97429.67
2022-11-18T02:50:44.655Z,97427.82
2022-11-18T02:51:50.699Z,97427.73
2022-11-18T02:52:59.992Z,97425.02
2022-11-18T02:54:08.384Z,97425.03
2022-11-18T02:55:14.997Z,97424.95
2022-11-18T02:56:20.363Z,97426.52
2022-11-18T02:57:26.425Z,97419.48
2022-11-18T02:58:28.407Z,97416.08
2022-11-18T02:59:30.322Z,97409.08
2022-11-18T03:00:33.192Z,97410.11
2022-11-18T03:01:36.771Z,97406.11
2022-11-18T03:02:47.730Z,97407.52
2022-11-18T03:03:50.839Z,97407.80
2022-11-18T03:04:57.963Z,97409.36
2022-11-18T03:06:25.770Z,97405.12
2022-11-18T03:07:36.184Z,97403.65
2022-11-18T03:09:02.577Z,97407.20
2022-11-18T03:10:05.107Z,97407.65
2022-11-18T03:11:19.044Z,97412.96
2022-11-18T03:12:38.992Z,97412.77
2022-11-18T03:14:09.313Z,97410.38
2022-11-18T03:15:43.760Z,97409.58
2022-11-18T03:17:02.125Z,97406.31
2022-11-18T03:18:12.872Z,97408.30
2022-11-18T03:19:45.205Z,97406.27
2022-11-18T03:20:58.073Z,97400.23
2022-11-18T03:22:27.109Z,97403.35
2022-11-18T03:23:33.040Z,97401.08
2022-11-18T03:24:41.244Z,97401.27
2022-11-18T03:25:57.667Z,97404.33
2022-11-18T03:27:15.078Z,97405.86
2022-11-18T03:28:46.142Z,97409.58
2022-11-18T03:29:57.144Z,97407.79
2022-11-18T03:31:12.086Z,97410.59
2022-11-18T03:32:23.839Z,97409.98
2022-11-18T03:33:36.309Z,97408.39
2022-11-18T03:34:47.346Z,97410.03
2022-11-18T03:35:54.556Z,97411.34
2022-11-18T03:37:03.298Z,97409.27
2022-11-18T03:38:17.841Z,97406.16
2022-11-18T03:39:23.670Z,97411.27
2022-11-18T03:40:31.534Z,97414.09
2022-11-18T03:41:41.216Z,97415.40
2022-11-18T03:42:49.375Z,97416.45
2022-11-18T03:44:06.274Z,97417.47
2022-11-18T03:45:45.099Z,97418.85
2022-11-18T03:46:56.635Z,97420.63
2022-11-18T03:48:12.273Z,97418.90
2022-11-18T03:49:22.263Z,97418.91
2022-11-18T03:50:35.207Z,97415.55
2022-11-18T03:51:44.739Z,97414.44
2022-11-18T03:52:49.532Z,97416.95
2022-11-18T03:53:58.715Z,97414.94
2022-11-18T03:55:12.191Z,97415.17
2022-11-18T03:56:22.695Z,97413.66
2022-11-18T03:57:42.923Z,97411.83
2022-11-18T03:59:03.313Z,97409.20
2022-11-18T04:00:16.045Z,97407.74
2022-11-18T04:01:33.859Z,97409.55
2022-11-18T04:02:37.127Z,97403.78
2022-11-18T04:03:39.243Z,97404.40
2022-11-18T04:04:44.097Z,97405.30
2022-11-18T04:05:56.340Z,97402.52
2022-11-18T04:07:33.339Z,97403.85
2022-11-18T04:08:40.235Z,97402.68
2022-11-18T04:09:49.362Z,97401.11
2022-11-18T04:11:02.021Z,97396.48
2022-11-18T04:12:11.272Z,97393.19
2022-11-18T04:13:26.330Z,97391.98
2022-11-18T04:14:33.577Z,97389.45
2022-11-18T04:15:41.844Z,97391.86
2022-11-18T04:16:45.254Z,97391.52
2022-11-18T04:17:47.043Z,97389.56
2022-11-18T04:18:48.785Z,97386.05
2022-11-18T04:19:50.708Z,97388.88
2022-11-18T04:20:52.504Z,97386.35
2022-11-18T04:21:54.446Z,97390.56
2022-11-18T04:22:56.196Z,97393.11
2022-11-18T04:23:58.086Z,97391.47
2022-11-18T04:24:59.799Z,97392.02
2022-11-18T04:26:01.522Z,97389.89
2022-11-18T04:27:04.839Z,97389.31
2022-11-18T04:28:06.752Z,97387.86
2022-11-18T04:29:08.508Z,97382.46
2022-11-18T04:30:11.335Z,97382.23
2022-11-18T04:31:13.055Z,97378.71
2022-11-18T04:32:15.020Z,97375.99
2022-11-18T04:33:16.748Z,97373.11
2022-11-18T04:34:18.483Z,97377.41
2022-11-18T04:35:20.282Z,97374.25
2022-11-18T04:36:22.068Z,97378.61
2022-11-18T04:37:24.763Z,97376.14
2022-11-18T04:38:26.478Z,97374.77
2022-11-18T04:39:28.480Z,97379.16
2022-11-18T04:40:30.197Z,97379.58
2022-11-18T04:41:51.010Z,97376.52
2022-11-18T04:42:52.722Z,97380.23
2022-11-18T04:43:54.487Z,97381.15
2022-11-18T04:44:56.328Z,97378.34
2022-11-18T04:45:58.066Z,97379.90
2022-11-18T04:47:03.879Z,97377.88
2022-11-18T04:48:06.241Z,97376.61
2022-11-18T04:49:13.548Z,97376.77
2022-11-18T04:50:15.465Z,97375.98
2022-11-18T04:51:17.239Z,97373.16
2022-11-18T04:52:19.179Z,97371.26
2022-11-18T04:53:20.895Z,97372.38
2022-11-18T04:54:24.791Z,97369.75
2022-11-18T04:55:27.366Z,97370.44
2022-11-18T04:56:29.915Z,97371.14
2022-11-18T04:57:31.651Z,97372.33
2022-11-18T04:58:33.721Z,97369.46
2022-11-18T04:59:35.678Z,97370.29
2022-11-18T05:00:37.500Z,97363.83
2022-11-18T05:01:40.209Z,97364.38
2022-11-18T05:02:42.005Z,97363.48
2022-11-18T05:03:47.767Z,97360.88
2022-11-18T05:04:52.297Z,97360.61
2022-11-18T05:05:54.128Z,97359.23
2022-11-18T05:06:57.227Z,97358.63
2022-11-18T05:07:59.101Z,97353.67
2022-11-18T05:09:01.620Z,97357.54
2022-11-18T05:10:03.603Z,97355.13
2022-11-18T05:11:27.376Z,97352.78
2022-11-18T05:12:48.181Z,97355.45
2022-11-18T05:13:50.703Z,97350.54
2022-11-18T05:14:52.506Z,97350.87
2022-11-18T05:15:54.291Z,97356.39
2022-11-18T05:16:59.911Z,97353.77
2022-11-18T05:18:01.619Z,97355.91
2022-11-18T05:19:05.901Z,97356.14
2022-11-18T05:20:08.889Z,97356.37
2022-11-18T05:21:10.793Z,97357.31
2022-11-18T05:22:12.550Z,97355.13
2022-11-18T05:23:14.283Z,97358.91
2022-11-18T05:24:16.762Z,97363.23
2022-11-18T05:25:18.573Z,97360.44
2022-11-18T05:26:20.398Z,97364.80
2022-11-18T05:27:22.154Z,97366.59
2022-11-18T05:28:24.202Z,97367.48
2022-11-18T05:29:26.078Z,97371.80
2022-11-18T05:30:27.806Z,97375.50
2022-11-18T05:31:29.674Z,97373.55
2022-11-18T05:32:31.622Z,97373.42
2022-11-18T05:33:33.425Z,97376.80
2022-11-18T05:34:35.225Z,97379.02
2022-11-18T05:35:37.373Z,97381.02
2022-11-18T05:36:39.173Z,97382.15
2022-11-18T05:37:40.877Z,97382.31
2022-11-18T05:38:43.755Z,97382.92
2022-11-18T05:39:45.445Z,97381.46
2022-11-18T05:40:47.219Z,97380.80
2022-11-18T05:42:07.937Z,97381.29
2022-11-18T05:43:13.628Z,97375.77
2022-11-18T05:44:15.916Z,97380.14
2022-11-18T05:45:19.414Z,97377.53
2022-11-18T05:46:21.138Z,97382.05
2022-11-18T05:47:25.049Z,97380.43
2022-11-18T05:48:27.871Z,97377.08
2022-11-18T05:49:29.603Z,97380.81
2022-11-18T05:50:34.284Z,97380.48
2022-11-18T05:51:36.061Z,97378.20
2022-11-18T05:52:37.781Z,97378.68
2022-11-18T05:53:39.566Z,97378.00
2022-11-18T05:54:48.983Z,97380.64
2022-11-18T05:56:34.440Z,97385.41
2022-11-18T05:57:36.188Z,97387.73
2022-11-18T05:58:37.984Z,97389.85
2022-11-18T05:59:39.726Z,97394.13
2022-11-18T06:00:42.139Z,97399.51
2022-11-18T06:01:58.531Z,97401.35
2022-11-18T06:03:01.732Z,97400.16
2022-11-18T06:04:13.273Z,97402.50
2022-11-18T06:05:18.609Z,97403.88
2022-11-18T06:06:23.149Z,97402.27
2022-11-18T06:07:30.719Z,97404.30
2022-11-18T06:08:45.029Z,97406.27
2022-11-18T06:09:52.031Z,97409.42
2022-11-18T06:10:53.877Z,97407.52
2022-11-18T06:12:00.440Z,97408.30
2022-11-18T06:13:09.857Z,97410.13
2022-11-18T06:14:35.604Z,97408.10
2022-11-18T06:15:42.868Z,97411.98
2022-11-18T06:16:52.010Z,97413.04
2022-11-18T06:18:02.255Z,97418.70
2022-11-18T06:19:04.646Z,97415.89
2022-11-18T06:20:07.345Z,97418.34
2022-11-18T06:21:09.278Z,97418.84
2022-11-18T06:22:11.222Z,97418.16
2022-11-18T06:23:13.835Z,97418.06
2022-11-18T06:24:18.142Z,97420.31
2022-11-18T06:25:20.380Z,97421.98
2022-11-18T06:26:22.242Z,97421.55
2022-11-18T06:27:24.280Z,97428.35
2022-11-18T06:28:28.801Z,97428.54
2022-11-18T06:29:31.489Z,97431.63
2022-11-18T06:30:33.224Z,97436.77
2022-11-18T06:31:35.191Z,97438.33
2022-11-18T06:32:36.918Z,97440.09
2022-11-18T06:33:38.845Z,97441.23
2022-11-18T06:34:41.965Z,97444.55
2022-11-18T06:35:44.977Z,97445.91
2022-11-18T06:36:46.718Z,97450.35
2022-11-18T06:37:48.468Z,97447.29
2022-11-18T06:38:50.268Z,97448.14
2022-11-18T06:39:52.093Z,97449.94
2022-11-18T06:40:53.809Z,97446.84
2022-11-18T06:41:55.516Z,97451.56
2022-11-18T06:43:15.576Z,97453.15
2022-11-18T06:44:17.741Z,97453.13
2022-11-18T06:45:19.508Z,97454.02
2022-11-18T06:46:40.207Z,97455.80
2022-11-18T06:47:41.967Z,97458.71
2022-11-18T06:48:44.052Z,97456.84
2022-11-18T06:49:45.912Z,97461.84
2022-11-18T06:50:47.630Z,97457.75
2022-11-18T06:51:49.623Z,97459.34
2022-11-18T06:52:51.618Z,97458.70
2022-11-18T06:53:53.964Z,97456.60
2022-11-18T06:54:55.813Z,97458.83
2022-11-18T06:55:57.597Z,97459.50
2022-11-18T06:56:59.531Z,97453.98
2022-11-18T06:58:01.475Z,97454.36
2022-11-18T06:59:03.864Z,97453.85
2022-11-18T07:00:06.638Z,97456.80
2022-11-18T07:01:22.090Z,97456.27
2022-11-18T07:02:23.896Z,97459.23
2022-11-18T07:03:25.623Z,97453.81
2022-11-18T07:04:27.314Z,97458.23
2022-11-18T07:05:29.022Z,97460.67
2022-11-18T07:06:33.387Z,97457.92
2022-11-18T07:07:41.457Z,97456.61
2022-11-18T07:08:45.135Z,97457.92
2022-11-18T07:09:46.862Z,97459.05
2022-11-18T07:10:53.436Z,97458.77
2022-11-18T07:11:55.122Z,97459.09
2022-11-18T07:12:56.818Z,97457.77
2022-11-18T07:13:58.557Z,97458.15
2022-11-18T07:15:00.310Z,97457.52
2022-11-18T07:16:08.414Z,97454.74
2022-11-18T07:17:10.159Z,97459.86
2022-11-18T07:18:11.901Z,97455.77
2022-11-18T07:19:14.416Z,97457.23
2022-11-18T07:20:16.468Z,97459.79
2022-11-18T07:21:20.734Z,97458.80
2022-11-18T07:22:22.521Z,97457.48
2022-11-18T07:23:25.245Z,97459.56
2022-11-18T07:24:26.976Z,97458.30
2022-11-18T07:25:28.730Z,97460.67
2022-11-18T07:26:30.439Z,97463.57
2022-11-18T07:27:32.209Z,97458.63
2022-11-18T07:28:34.872Z,97459.48
2022-11-18T07:29:36.624Z,97462.15
2022-11-18T07:30:38.321Z,97463.23
2022-11-18T07:31:40.926Z,97465.55
2022-11-18T07:32:42.695Z,97466.14
2022-11-18T07:33:46.340Z,97466.04
2022-11-18T07:34:48.109Z,97462.45
2022-11-18T07:35:49.833Z,97463.42
2022-11-18T07:36:51.572Z,97464.98
2022-11-18T07:37:53.246Z,97467.59
2022-11-18T07:38:58.269Z,97468.02
2022-11-18T07:40:00.121Z,97469.16
2022-11-18T07:41:13.994Z,97468.60
2022-11-18T07:42:15.723Z,97476.16
2022-11-18T07:43:17.423Z,97474.85
2022-11-18T07:44:19.266Z,97474.66
2022-11-18T07:45:21.114Z,97476.96
2022-11-18T07:46:30.308Z,97474.36
2022-11-18T07:47:34.342Z,97477.20
2022-11-18T07:48:36.188Z,97479.58
2022-11-18T07:49:37.870Z,97479.07
2022-11-18T07:50:43.055Z,97483.33
2022-11-18T07:51:48.650Z,97479.86
2022-11-18T07:52:50.377Z,97484.05
2022-11-18T07:53:52.671Z,97484.35
2022-11-18T07:54:54.379Z,97486.25
2022-11-18T07:55:56.092Z,97484.08
2022-11-18T07:56:57.862Z,97488.46
2022-11-18T07:57:59.620Z,97487.04
2022-11-18T07:59:01.483Z,97484.42
2022-11-18T08:00:04.540Z,97487.48
2022-11-18T08:01:17.208Z,97485.14
2022-11-18T08:02:18.900Z,97485.06
2022-11-18T08:03:27.854Z,97483.48
2022-11-18T08:04:29.705Z,97477.98
2022-11-18T08:05:31.452Z,97477.98
2022-11-18T08:06:35.049Z,97476.67
2022-11-18T08:07:36.820Z,97479.83
2022-11-18T08:08:39.348Z,97476.61
2022-11-18T08:09:41.110Z,97477.91
2022-11-18T08:10:42.821Z,97478.56
2022-11-18T08:11:44.562Z,97475.16
2022-11-18T08:12:46.269Z,97477.67
2022-11-18T08:13:47.938Z,97479.83
2022-11-18T08:14:49.751Z,97479.20
2022-11-18T08:15:52.036Z,97479.36
2022-11-18T08:16:53.784Z,97481.59
2022-11-18T08:17:55.483Z,97480.52
2022-11-18T08:19:00.696Z,97484.85
2022-11-18T08:20:02.621Z,97482.73
2022-11-18T08:21:05.382Z,97480.37
2022-11-18T08:22:07.091Z,97479.63
2022-11-18T08:23:09.085Z,97476.67
2022-11-18T08:24:11.175Z,97477.09
2022-11-18T08:25:13.083Z,97478.37
2022-11-18T08:26:15.999Z,97475.00
2022-11-18T08:27:17.694Z,97474.70
2022-11-18T08:28:19.448Z,97474.27
2022-11-18T08:29:24.976Z,97476.80
2022-11-18T08:30:27.375Z,97473.94
2022-11-18T08:31:30.960Z,97475.54
2022-11-18T08:32:32.809Z,97473.48
2022-11-18T08:33:34.493Z,97474.95
2022-11-18T08:34:36.252Z,97474.33
2022-11-18T08:35:37.984Z,97474.11
2022-11-18T08:36:39.856Z,97474.93
2022-11-18T08:37:41.597Z,97471.45
2022-11-18T08:38:43.844Z,97469.25
2022-11-18T08:39:45.680Z,97474.33
2022-11-18T08:40:48.220Z,97470.22
2022-11-18T08:41:50.477Z,97471.96
2022-11-18T08:42:52.811Z,97475.33
2022-11-18T08:43:54.657Z,97465.35
2022-11-18T08:44:56.408Z,97467.92
2022-11-18T08:45:58.161Z,97468.90
2022-11-18T08:47:00.483Z,97467.95
2022-11-18T08:48:02.500Z,97466.84
2022-11-18T08:49:04.804Z,97467.71
2022-11-18T08:50:09.342Z,97468.77
2022-11-18T08:51:12.448Z,97464.28
2022-11-18T08:52:14.175Z,97472.85
2022-11-18T08:53:15.953Z,97476.04
2022-11-18T08:54:18.114Z,97473.90
2022-11-18T08:55:20.765Z,97477.11
2022-11-18T08:56:24.772Z,97477.17
2022-11-18T08:57:26.515Z,97479.66
2022-11-18T08:58:28.985Z,97476.78
2022-11-18T08:59:30.744Z,97481.98
2022-11-18T09:00:32.492Z,97478.63
2022-11-18T09:01:36.615Z,97483.23
2022-11-18T09:02:38.421Z,97482.35
2022-11-18T09:03:40.762Z,97484.65
2022-11-18T09:04:43.473Z,97485.02
2022-11-18T09:05:45.867Z,97484.41
2022-11-18T09:06:47.593Z,97487.08
2022-11-18T09:07:49.401Z,97487.62
2022-11-18T09:08:51.151Z,97489.05
2022-11-18T09:09:52.924Z,97492.84
2022-11-18T09:10:54.642Z,97490.28
2022-11-18T09:11:56.349Z,97489.84
2022-11-18T09:13:18.103Z,97491.19
2022-11-18T09:15:41.426Z,97491.64
2022-11-18T09:16:43.181Z,97486.36
2022-11-18T09:17:44.880Z,97486.41
2022-11-18T09:18:52.847Z,97482.61
2022-11-18T09:19:54.609Z,97486.38
2022-11-18T09:20:59.642Z,97485.70
2022-11-18T09:22:01.570Z,97483.29
2022-11-18T09:23:03.303Z,97480.89
2022-11-18T09:24:06.101Z,97483.34
2022-11-18T09:25:08.627Z,97483.41
2022-11-18T09:26:13.655Z,97491.00
2022-11-18T09:27:17.586Z,97486.41
2022-11-18T09:28:19.975Z,97487.89
2022-11-18T09:29:25.939Z,97488.77
2022-11-18T09:30:27.833Z,97486.90
2022-11-18T09:31:30.645Z,97492.98
2022-11-18T09:32:33.745Z,97493.13
2022-11-18T09:33:37.727Z,97487.66
2022-11-18T09:34:39.459Z,97490.55
2022-11-18T09:35:45.112Z,97491.73
2022-11-18T09:36:47.105Z,97488.52
2022-11-18T09:37:48.819Z,97485.89
2022-11-18T09:38:53.472Z,97481.22
2022-11-18T09:39:55.443Z,97479.66
2022-11-18T09:41:24.409Z,97479.16
2022-11-18T09:43:02.256Z,97479.20
2022-11-18T09:44:28.575Z,97474.14
2022-11-18T09:45:44.306Z,97472.16
2022-11-18T09:47:13.633Z,97472.48
2022-11-18T09:48:42.037Z,97474.96
2022-11-18T09:49:46.030Z,97469.88
2022-11-18T09:50:49.988Z,97472.66
2022-11-18T09:51:53.469Z,97469.88
2022-11-18T09:52:58.121Z,97472.84
2022-11-18T09:54:00.295Z,97469.77
2022-11-18T09:55:11.559Z,97469.06
2022-11-18T09:56:16.086Z,97469.64
2022-11-18T09:57:25.436Z,97470.48
2022-11-18T09:58:36.141Z,97470.41
2022-11-18T09:59:38.544Z,97472.06
2022-11-18T10:00:43.991Z,97470.77
2022-11-18T10:01:46.926Z,97471.09
2022-11-18T10:03:03.628Z,97469.52
2022-11-18T10:04:05.537Z,97463.13
2022-11-18T10:05:44.219Z,97467.84
2022-11-18T10:06:48.243Z,97468.29
2022-11-18T10:08:06.026Z,97466.91
2022-11-18T10:09:27.471Z,97469.66
2022-11-18T10:10:45.060Z,97472.36
2022-11-18T10:12:08.488Z,97469.90
2022-11-18T10:13:23.804Z,97471.81
2022-11-18T10:14:43.866Z,97471.40
2022-11-18T10:16:02.512Z,97470.37
2022-11-18T10:17:04.144Z,97469.73
2022-11-18T10:20:11.077Z,97469.83
2022-11-18T10:21:50.562Z,97470.71
2022-11-18T10:22:54.635Z,97471.58
2022-11-18T10:24:07.416Z,97474.40
2022-11-18T10:25:15.351Z,97475.98
2022-11-18T10:26:32.676Z,97478.88
2022-11-18T10:27:39.223Z,97477.04
2022-11-18T10:28:40.973Z,97484.56
2022-11-18T10:29:45.953Z,97484.83
2022-11-18T10:30:47.939Z,97483.80
2022-11-18T10:32:27.447Z,97482.22
2022-11-18T10:33:29.667Z,97481.00
2022-11-18T10:34:45.648Z,97482.11
2022-11-18T10:35:48.359Z,97481.14
2022-11-18T10:37:00.893Z,97481.15
2022-11-18T10:38:15.907Z,97481.89
2022-11-18T10:39:17.779Z,97484.71
2022-11-18T10:40:27.713Z,97480.40
2022-11-18T10:41:29.543Z,97482.61
2022-11-18T10:42:48.640Z,97478.52
2022-11-18T10:43:56.154Z,97481.00
2022-11-18T10:45:23.350Z,97478.12
2022-11-18T10:46:34.138Z,97483.08
2022-11-18T10:47:35.915Z,97482.11
2022-11-18T10:48:37.655Z,97485.39
2022-11-18T10:49:40.101Z,97483.59
2022-11-18T10:50:54.773Z,97485.67
2022-11-18T10:52:11.484Z,97484.02
2022-11-18T10:53:34.802Z,97479.61
2022-11-18T10:54:37.177Z,97480.36
2022-11-18T10:55:38.914Z,97477.98
2022-11-18T10:56:53.426Z,97484.25
2022-11-18T10:58:10.218Z,97481.28
2022-11-18T10:59:34.830Z,97486.23
2022-11-18T11:00:42.162Z,97485.83
2022-11-18T11:01:56.961Z,97491.08
2022-11-18T11:02:59.194Z,97492.34
2022-11-18T11:04:12.288Z,97492.25
2022-11-18T11:05:21.967Z,97493.41
2022-11-18T11:06:26.583Z,97495.02
2022-11-18T11:07:33.005Z,97495.67
2022-11-18T11:08:37.581Z,97492.83
2022-11-18T11:09:39.804Z,97495.42
2022-11-18T11:10:41.628Z,97492.83
2022-11-18T11:12:17.583Z,97495.80
2022-11-18T11:13:19.483Z,97500.66
2022-11-18T11:14:53.333Z,97502.69
2022-11-18T11:16:03.723Z,97504.36
2022-11-18T11:17:09.679Z,97503.45
2022-11-18T11:18:43.041Z,97501.60
2022-11-18T11:20:06.188Z,97507.98
2022-11-18T11:21:29.006Z,97508.35
2022-11-18T11:22:31.020Z,97508.48
2022-11-18T11:23:34.476Z,97506.79
2022-11-18T11:24:36.825Z,97509.75
2022-11-18T11:28:56.616Z,97505.05
2022-11-18T11:30:07.416Z,97500.27
2022-11-18T11:31:18.282Z,97501.88
2022-11-18T11:32:31.246Z,97502.56
2022-11-18T11:33:45.904Z,97499.11
2022-11-18T11:35:22.289Z,97502.82
2022-11-18T11:37:02.458Z,97502.90
2022-11-18T11:38:21.264Z,97498.61
2022-11-18T11:39:53.529Z,97503.18
2022-11-18T11:41:04.047Z,97494.77
2022-11-18T11:42:28.016Z,97498.54
2022-11-18T11:43:56.479Z,97500.57
2022-11-18T11:45:17.040Z,97502.02
2022-11-18T11:47:10.591Z,97504.97
2022-11-18T11:48:15.771Z,97504.05
2022-11-18T11:49:44.230Z,97512.99
2022-11-18T11:51:04.940Z,97509.92
2022-11-18T11:52:45.364Z,97512.48
2022-11-18T11:54:01.238Z,97511.55
2022-11-18T11:55:48.271Z,97513.63
2022-11-18T11:57:05.380Z,97513.06
2022-11-18T11:58:17.127Z,97514.09
2022-11-18T11:59:21.475Z,97516.73
2022-11-18T12:00:24.095Z,97518.44
2022-11-18T12:01:52.820Z,97519.35
2022-11-18T12:03:09.587Z,97522.84
2022-11-18T12:04:33.081Z,97520.80
2022-11-18T12:05:43.063Z,97523.27
2022-11-18T12:06:53.779Z,97528.59
2022-11-18T12:08:03.097Z,97523.66
2022-11-18T12:09:14.047Z,97528.78
2022-11-18T12:10:27.731Z,97524.56
2022-11-18T12:11:36.914Z,97526.50
2022-11-18T12:12:54.469Z,97521.85
2022-11-18T12:14:10.462Z,97522.23
2022-11-18T12:15:35.736Z,97520.90
2022-11-18T12:16:50.674Z,97522.15
2022-11-18T12:18:08.993Z,97523.70
2022-11-18T12:19:21.288Z,97521.15
2022-11-18T12:20:52.352Z,97525.17
2022-11-18T12:21:58.410Z,97523.21
2022-11-18T12:23:10.478Z,97520.16
2022-11-18T12:24:18.367Z,97519.35
2022-11-18T12:25:47.839Z,97518.76
2022-11-18T12:26:51.332Z,97524.83
2022-11-18T12:28:00.134Z,97525.30
2022-11-18T12:29:20.520Z,97528.14
2022-11-18T12:30:22.659Z,97526.81
2022-11-18T12:31:24.265Z,97530.16
2022-11-18T12:32:28.194Z,97528.61
2022-11-18T12:33:30.131Z,97534.45
2022-11-18T12:34:43.312Z,97530.04
2022-11-18T12:35:51.076Z,97532.36
2022-11-18T12:36:54.596Z,97529.27
2022-11-18T12:38:00.806Z,97529.49
2022-11-18T12:39:25.491Z,97525.88
2022-11-18T12:40:53.704Z,97529.33
2022-11-18T12:42:16.547Z,97529.55
2022-11-18T12:43:45.875Z,97528.98
2022-11-18T12:44:51.118Z,97529.55
2022-11-18T12:45:55.475Z,97532.84
2022-11-18T12:47:02.377Z,97531.67
2022-11-18T12:48:04.590Z,97532.39
2022-11-18T12:49:21.865Z,97529.31
2022-11-18T12:50:47.829Z,97528.88
2022-11-18T12:51:52.000Z,97527.44
2022-11-18T12:52:54.999Z,97526.64
2022-11-18T12:53:57.655Z,97524.19
2022-11-18T12:55:04.461Z,97522.49
2022-11-18T12:56:27.579Z,97521.34
2022-11-18T12:57:34.565Z,97523.04
2022-11-18T12:58:36.859Z,97522.98
2022-11-18T12:59:39.170Z,97523.27
2022-11-18T13:00:53.235Z,97519.48
2022-11-18T13:02:21.545Z,97518.96
2022-11-18T13:03:28.609Z,97513.75
2022-11-18T13:04:30.386Z,97513.94
2022-11-18T13:05:35.015Z,97513.45
2022-11-18T13:06:39.267Z,97515.81
2022-11-18T13:08:08.207Z,97516.73
2022-11-18T13:09:20.482Z,97515.04
2022-11-18T13:10:29.379Z,97512.23
2022-11-18T13:11:45.729Z,97512.98
2022-11-18T13:12:49.660Z,97510.51
2022-11-18T13:14:12.953Z,97511.98
2022-11-18T13:15:34.338Z,97510.92
2022-11-18T13:16:54.993Z,97509.40
2022-11-18T13:18:07.640Z,97513.67
2022-11-18T13:19:09.902Z,97507.34
2022-11-18T13:20:35.866Z,97510.73